Terminal Aerodrome Forecast
Issued by NWS

Home | Current Version | Previous Version | Text Only | Print | Product List | Glossary On
Versions: 1 2 3 4 5 6 7 8 9 10 11 12 13 14 15
000
FTUS43 KILX 301100
TAFCMI
TAF
KCMI 301135Z 3012/3112 18004KT P6SM BKN200
     FM301700 17007KT P6SM SCT060 BKN100
     FM302000 VRB06KT P6SM VCSH BKN050 OVC100
     FM310300 33005KT P6SM BKN045=

USA.gov is the U.S. government's official web portal to all federal, state and local government web resources and services.